.
WxDataArchive / Data Records for 2014-03-21
2014-03-20 March 2014 2014-03-22

Data Records for Friday, 21 March 2014

Time	Temp	Chill	HIndex	Humid	Dewpt	 Wind 	HiWind	WindDir	Rain 	Barom
-----	----	-----	------	-----	-----	------	------	-------	-----	-----
00:00	31.3	31.3	31.3	78	25.3	0	0	---	0.00	30.058 
00:05	31.5	31.5	31.5	78	25.4	0	0	---	0.00	30.058 
00:10	31.6	31.6	31.6	78	25.5	0	0	---	0.00	30.058 
00:15	31.8	31.8	31.8	77	25.4	0	0	---	0.00	30.051 
00:20	32.1	32.1	32.1	76	25.4	0	0	---	0.00	30.051 
00:25	32.4	32.4	32.4	75	25.4	0	0	---	0.00	30.051 
00:30	32.5	32.5	32.5	74	25.2	0	0	---	0.00	30.048 
00:35	32.8	32.8	32.8	73	25.1	0	1	292	0.00	30.048 
00:40	32.9	32.9	32.9	73	25.2	0	0	---	0.00	30.048 
00:45	33.1	33.1	33.1	72	25.1	0	0	---	0.00	30.048 
00:50	33.1	33.1	33.1	72	25.1	0	0	---	0.00	30.048 
00:55	33.1	33.1	33.1	72	25.1	0	0	---	0.00	30.048 
01:00	32.9	32.9	32.9	72	24.9	0	0	---	0.00	30.053 
01:05	32.8	32.8	32.8	72	24.8	0	0	---	0.00	30.053 
01:10	32.7	32.7	32.7	73	25.0	0	0	---	0.00	30.053 
01:15	32.4	32.4	32.4	73	24.7	0	0	---	0.00	30.053 
01:20	32.1	32.1	32.1	73	24.4	0	0	---	0.00	30.053 
01:25	31.8	31.8	31.8	73	24.1	0	0	---	0.00	30.053 
01:30	31.5	31.5	31.5	73	23.9	0	0	---	0.00	30.058 
01:35	31.2	31.2	31.2	74	23.9	0	0	---	0.00	30.058 
01:40	30.9	30.9	30.9	75	23.9	0	0	---	0.00	30.058 
01:45	30.6	30.6	30.6	75	23.6	0	0	---	0.00	30.056 
01:50	30.3	30.3	30.3	76	23.7	0	0	---	0.00	30.056 
01:55	30.1	30.1	30.1	76	23.5	0	0	---	0.00	30.056 
02:00	30.0	30.0	30.0	77	23.7	0	0	---	0.00	30.060 
02:05	29.7	29.7	29.7	77	23.4	0	0	---	0.00	30.060 
02:10	29.5	29.5	29.5	78	23.5	0	0	---	0.00	30.060 
02:15	29.4	29.4	29.4	79	23.7	0	0	---	0.00	30.062 
02:20	29.3	29.3	29.3	80	23.9	0	0	---	0.00	30.062 
02:25	29.3	29.3	29.3	81	24.2	0	0	---	0.00	30.062 
02:30	29.3	29.3	29.3	81	24.2	0	0	---	0.00	30.052 
02:35	29.1	29.1	29.1	81	24.0	0	0	---	0.00	30.052 
02:40	29.1	29.1	29.1	81	24.0	0	0	---	0.00	30.052 
02:45	29.1	29.1	29.1	81	24.0	0	0	---	0.00	30.067 
02:50	29.0	29.0	29.0	81	23.9	0	0	---	0.00	30.067 
02:55	29.0	29.0	29.0	82	24.2	0	0	---	0.00	30.067 
03:00	28.8	28.8	28.8	82	24.0	0	0	---	0.00	30.073 
03:05	28.8	28.8	28.8	82	24.0	0	0	---	0.00	30.073 
03:10	28.8	28.8	28.8	82	24.0	0	0	---	0.00	30.073 
03:15	28.8	28.8	28.8	83	24.3	0	0	---	0.00	30.065 
03:20	28.8	28.8	28.8	83	24.3	0	0	---	0.00	30.065 
03:25	28.8	28.8	28.8	83	24.3	0	0	---	0.00	30.065 
03:30	28.8	28.8	28.8	84	24.6	0	0	---	0.00	30.066 
03:35	28.8	28.8	28.8	84	24.6	0	0	---	0.00	30.066 
03:40	29.0	29.0	29.0	84	24.8	0	0	---	0.00	30.066 
03:45	29.1	29.1	29.1	84	24.9	0	0	---	0.00	30.059 
03:50	29.3	29.3	29.3	84	25.1	0	0	---	0.00	30.059 
03:55	29.4	29.4	29.4	84	25.2	0	0	---	0.00	30.059 
04:00	29.5	29.5	29.5	85	25.6	0	0	---	0.00	30.061 
04:05	29.8	29.8	29.8	85	25.9	0	0	---	0.00	30.061 
04:10	30.1	30.1	30.1	84	25.9	0	0	---	0.00	30.061 
04:15	30.3	30.3	30.3	84	26.1	0	0	---	0.00	30.055 
04:20	30.6	30.6	30.6	84	26.4	0	0	---	0.00	30.055 
04:25	30.9	30.9	30.9	84	26.6	0	1	292	0.00	30.055 
04:30	31.2	31.2	31.2	83	26.6	0	1	292	0.00	30.055 
04:35	31.5	31.5	31.5	82	26.7	0	2	292	0.00	30.055 
04:40	31.8	31.8	31.8	81	26.6	0	2	292	0.00	30.055 
04:45	32.1	32.1	32.1	81	26.9	0	1	292	0.00	30.043 
04:50	32.2	32.2	32.2	81	27.0	1	2	315	0.00	30.043 
04:55	32.2	32.2	32.2	81	27.0	1	3	45	0.00	30.043 
05:00	32.4	32.4	32.4	80	26.9	1	3	45	0.00	30.037 
05:05	32.5	32.5	32.5	80	27.0	0	1	45	0.00	30.037 
05:10	32.5	32.5	32.5	81	27.3	0	2	45	0.00	30.037 
05:15	32.5	32.5	32.5	81	27.3	1	3	45	0.00	30.031 
05:20	32.5	32.5	32.5	82	27.6	0	2	45	0.00	30.031 
05:25	32.4	32.4	32.4	83	27.8	0	2	135	0.00	30.031 
05:30	32.2	32.2	32.2	84	27.9	0	2	135	0.00	30.032 
05:35	32.1	32.1	32.1	84	27.8	0	3	135	0.00	30.032 
05:40	32.1	32.1	32.1	85	28.1	0	1	135	0.00	30.032 
05:45	31.9	31.9	31.9	85	27.9	0	1	135	0.00	30.043 
05:50	31.9	31.9	31.9	85	27.9	0	1	135	0.00	30.043 
05:55	31.8	31.8	31.8	86	28.1	0	1	135	0.00	30.043 
06:00	31.8	31.8	31.8	86	28.1	0	1	135	0.00	30.043 
06:05	31.8	31.8	31.8	87	28.4	0	1	135	0.00	30.043 
06:10	31.6	31.6	31.6	87	28.2	0	1	135	0.00	30.043 
06:15	31.6	31.6	31.6	87	28.2	0	1	135	0.00	30.046 
06:20	31.5	31.5	31.5	88	28.4	0	1	135	0.00	30.046 
06:25	31.5	31.5	31.5	88	28.4	0	2	135	0.00	30.046 
06:30	31.3	31.3	31.3	89	28.4	1	3	135	0.00	30.044 
06:35	31.3	31.3	31.3	89	28.4	0	2	135	0.00	30.044 
06:40	31.3	31.3	31.3	89	28.4	0	1	135	0.00	30.044 
06:45	31.3	31.3	31.3	90	28.7	0	2	135	0.00	30.041 
06:50	31.2	31.2	31.2	90	28.6	0	2	135	0.00	30.041 
06:55	31.2	31.2	31.2	90	28.6	0	2	135	0.00	30.041 
07:00	31.2	31.2	31.2	90	28.6	0	1	135	0.00	30.045 
07:05	31.2	31.2	31.2	91	28.9	0	2	135	0.00	30.045 
07:10	31.2	31.2	31.2	91	28.9	0	2	135	0.00	30.045 
07:15	31.0	31.0	31.0	91	28.7	0	1	135	0.00	30.042 
07:20	31.0	31.0	31.0	91	28.7	0	2	135	0.00	30.042 
07:25	31.0	31.0	31.0	91	28.7	0	2	135	0.00	30.042 
07:30	31.0	31.0	31.0	91	28.7	0	2	135	0.00	30.039 
07:35	31.0	31.0	31.0	91	28.7	0	2	135	0.00	30.039 
07:40	31.0	31.0	31.0	92	29.0	0	2	135	0.00	30.039 
07:45	31.0	31.0	31.0	92	29.0	0	2	135	0.00	30.042 
07:50	31.0	31.0	31.0	92	29.0	1	3	135	0.00	30.042 
07:55	31.0	31.0	31.0	92	29.0	0	2	135	0.00	30.042 
08:00	31.0	31.0	31.0	92	29.0	1	3	135	0.00	30.035 
08:05	31.0	31.0	31.0	92	29.0	0	3	112	0.00	30.035 
08:10	31.0	31.0	31.0	92	29.0	0	2	112	0.00	30.035 
08:15	31.0	31.0	31.0	92	29.0	0	2	112	0.00	30.050 
08:20	31.0	31.0	31.0	92	29.0	1	3	112	0.00	30.050 
08:25	31.0	31.0	31.0	92	29.0	1	2	112	0.00	30.050 
08:30	31.0	31.0	31.0	92	29.0	1	2	112	0.00	30.051 
08:35	31.0	31.0	31.0	92	29.0	1	2	112	0.00	30.051 
08:40	31.2	31.2	31.2	92	29.2	1	2	112	0.00	30.051 
08:45	31.2	31.2	31.2	92	29.2	1	4	90	0.00	30.056 
08:50	31.2	31.2	31.2	92	29.2	1	2	90	0.00	30.056 
08:55	31.2	31.2	31.2	92	29.2	1	4	90	0.00	30.056 
09:00	31.3	31.3	31.3	92	29.3	1	2	90	0.00	30.061 
09:05	31.3	31.3	31.3	92	29.3	1	3	90	0.00	30.061 
09:10	31.3	31.3	31.3	92	29.3	1	4	90	0.00	30.061 
09:15	31.3	31.3	31.3	92	29.3	2	4	90	0.00	30.054 
09:20	31.3	31.3	31.3	92	29.3	2	5	90	0.00	30.054 
09:25	31.5	31.5	31.5	92	29.4	2	5	90	0.00	30.054 
09:30	31.6	31.6	31.6	92	29.5	2	4	90	0.00	30.052 
09:35	31.6	31.6	31.6	92	29.5	2	5	90	0.00	30.052 
09:40	31.8	31.8	31.8	92	29.7	3	5	112	0.01	30.052 
09:45	32.1	32.1	32.1	92	30.0	3	6	90	0.00	30.051 
09:50	32.4	32.4	32.4	91	30.1	3	6	112	0.00	30.051 
09:55	32.5	32.5	32.5	91	30.2	3	9	90	0.00	30.051 
10:00	32.7	32.7	32.7	90	30.1	3	7	112	0.01	30.049 
10:05	32.9	32.9	32.9	90	30.3	3	7	90	0.00	30.049 
10:10	33.1	33.1	33.1	89	30.2	3	7	112	0.00	30.049 
10:15	33.4	29.7	33.4	88	30.2	4	7	90	0.01	30.054 
10:20	33.7	30.0	33.7	88	30.5	4	10	90	0.00	30.054 
10:25	33.8	30.2	33.8	88	30.6	4	9	90	0.00	30.054 
10:30	33.8	29.2	33.8	86	30.1	5	11	90	0.00	30.052 
10:35	34.1	30.5	34.1	87	30.6	4	11	90	0.00	30.052 
10:40	34.4	29.9	34.4	85	30.4	5	11	112	0.00	30.052 
10:45	34.4	29.9	34.4	84	30.1	5	10	90	0.00	30.050 
10:50	34.3	30.7	34.3	85	30.3	4	9	90	0.00	30.050 
10:55	34.4	29.9	34.4	84	30.1	5	13	112	0.00	30.050 
11:00	34.6	30.1	34.6	84	30.3	5	10	112	0.00	30.047 
11:05	35.0	30.6	35.0	84	30.7	5	10	90	0.00	30.047 
11:10	35.9	32.6	35.9	82	31.0	4	9	90	0.00	30.047 
11:15	36.0	32.7	36.0	82	31.0	4	8	90	0.00	30.037 
11:20	35.9	32.6	35.9	82	31.0	4	11	90	0.00	30.037 
11:25	35.9	32.6	35.9	83	31.2	4	10	90	0.00	30.037 
11:30	36.2	32.9	36.2	83	31.5	4	9	112	0.00	30.034 
11:35	36.2	32.9	36.2	82	31.2	4	13	112	0.00	30.034 
11:40	36.0	31.8	36.0	82	31.0	5	11	90	0.00	30.034 
11:45	36.2	32.0	36.2	82	31.2	5	9	90	0.00	30.023 
11:50	36.6	32.5	36.6	82	31.6	5	9	90	0.00	30.023 
11:55	36.8	32.7	36.8	81	31.5	5	12	90	0.00	30.023 
12:00	37.2	33.2	37.2	81	31.9	5	12	90	0.00	30.018 
12:05	36.9	32.1	36.9	80	31.3	6	11	90	0.00	30.018 
12:10	37.0	32.9	37.0	81	31.7	5	10	112	0.00	30.018 
12:15	37.5	33.5	37.5	81	32.2	5	11	90	0.00	30.006 
12:20	37.8	33.1	37.8	79	31.9	6	12	112	0.00	30.006 
12:25	38.0	34.1	38.0	80	32.4	5	9	90	0.00	30.006 
12:30	38.3	34.5	38.3	79	32.4	5	10	90	0.00	30.008 
12:35	38.8	35.1	38.8	79	32.9	5	10	90	0.00	30.008 
12:40	38.8	33.7	38.8	78	32.5	7	12	90	0.00	30.008 
12:45	38.6	34.1	38.6	79	32.7	6	12	90	0.00	30.000 
12:50	39.1	39.1	39.1	80	33.5	3	9	112	0.00	30.000 
12:55	39.5	36.7	39.5	78	33.2	4	12	112	0.00	30.000 
13:00	39.6	36.0	39.6	78	33.3	5	11	90	0.00	29.997 
13:05	39.5	35.9	39.5	78	33.2	5	13	90	0.00	29.997 
13:10	39.8	39.8	39.8	80	34.1	3	11	90	0.00	29.997 
13:15	40.3	36.8	40.3	78	34.0	5	9	90	0.00	29.992 
13:20	40.3	36.1	40.3	77	33.7	6	11	112	0.00	29.992 
13:25	40.2	36.7	40.2	78	33.9	5	15	90	0.00	29.992 
13:30	40.5	37.1	40.5	78	34.2	5	11	90	0.00	29.989 
13:35	40.8	37.4	40.8	79	34.8	5	10	90	0.00	29.989 
13:40	41.5	37.5	41.5	77	34.8	6	12	90	0.00	29.989 
13:45	41.6	37.7	41.6	77	34.9	6	12	90	0.00	29.984 
13:50	41.8	39.4	41.8	77	35.1	4	11	90	0.00	29.984 
13:55	42.1	39.7	42.1	77	35.4	4	11	90	0.00	29.984 
14:00	42.3	39.2	42.3	76	35.3	5	10	90	0.00	29.979 
14:05	42.6	40.3	42.6	77	35.9	4	10	112	0.00	29.979 
14:10	43.2	40.2	43.2	76	36.2	5	13	90	0.00	29.979 
14:15	43.2	39.6	43.2	76	36.2	6	13	90	0.00	29.967 
14:20	43.6	41.5	43.6	77	36.9	4	11	90	0.00	29.967 
14:25	43.9	41.1	43.9	74	36.2	5	12	90	0.00	29.967 
14:30	44.2	41.4	44.2	75	36.8	5	11	112	0.00	29.952 
14:35	44.8	42.9	44.8	75	37.4	4	9	90	0.00	29.952 
14:40	44.9	43.0	44.9	73	36.8	4	9	90	0.00	29.952 
14:45	44.9	42.2	44.9	74	37.1	5	12	112	0.00	29.938 
14:50	45.2	42.0	45.2	73	37.1	6	12	90	0.00	29.938 
14:55	44.9	41.6	44.9	74	37.1	6	11	90	0.00	29.938 
15:00	45.4	42.8	45.4	73	37.3	5	12	90	0.00	29.924 
15:05	45.4	41.6	45.4	75	37.9	7	13	90	0.00	29.924 
15:10	45.8	42.7	45.8	74	38.0	6	10	90	0.00	29.924 
15:15	46.1	43.0	46.1	73	37.9	6	11	90	0.00	29.907 
15:20	46.0	42.9	46.0	73	37.8	6	14	90	0.00	29.907 
15:25	46.2	42.6	46.2	74	38.4	7	12	112	0.00	29.907 
15:30	46.2	43.1	46.2	74	38.4	6	13	90	0.00	29.906 
15:35	46.5	43.5	46.5	73	38.3	6	11	90	0.00	29.906 
15:40	46.8	43.9	46.8	73	38.6	6	12	90	0.00	29.906 
15:45	47.1	44.8	47.1	72	38.5	5	12	112	0.00	29.904 
15:50	47.6	46.1	47.6	71	38.7	4	10	90	0.00	29.904 
15:55	47.9	45.8	47.9	71	39.0	5	12	90	0.00	29.904 
16:00	48.0	45.9	48.0	72	39.4	5	10	90	0.00	29.897 
16:05	48.3	46.2	48.3	71	39.3	5	10	90	0.00	29.897 
16:10	48.5	47.1	48.5	71	39.5	4	10	90	0.00	29.897 
16:15	48.8	47.5	48.8	71	39.8	4	8	90	0.00	29.882 
16:20	48.9	47.6	48.9	71	39.9	4	10	90	0.00	29.882 
16:25	49.2	47.9	49.2	70	39.8	4	10	90	0.00	29.882 
16:30	49.4	48.2	49.4	72	40.8	4	9	112	0.00	29.872 
16:35	49.5	49.5	49.5	71	40.5	3	7	90	0.00	29.872 
16:40	49.6	48.4	49.6	70	40.2	4	10	90	0.00	29.872 
16:45	49.6	48.4	49.6	71	40.6	4	10	90	0.00	29.863 
16:50	49.9	48.1	49.9	69	40.1	5	11	90	0.00	29.863 
16:55	50.1	50.1	50.1	69	40.3	4	10	90	0.00	29.863 
17:00	50.1	50.1	50.1	69	40.3	5	7	112	0.00	29.852 
17:05	50.1	50.1	50.1	70	40.7	5	10	90	0.00	29.852 
17:10	50.2	50.2	50.2	71	41.2	5	10	90	0.00	29.852 
17:15	50.4	50.4	50.4	69	40.6	5	7	90	0.00	29.842 
17:20	50.4	50.4	50.4	70	41.0	5	11	90	0.00	29.842 
17:25	50.5	50.5	50.5	70	41.1	5	11	90	0.00	29.842 
17:30	50.5	50.5	50.5	71	41.5	5	9	90	0.00	29.829 
17:35	50.8	50.8	50.8	70	41.4	2	9	112	0.00	29.829 
17:40	51.0	51.0	51.0	69	41.2	5	11	90	0.00	29.829 
17:45	51.0	51.0	51.0	69	41.2	5	13	90	0.00	29.824 
17:50	51.0	51.0	51.0	69	41.2	6	10	90	0.00	29.824 
17:55	51.0	51.0	51.0	69	41.2	4	10	90	0.00	29.824 
18:00	51.0	51.0	51.0	69	41.2	4	11	90	0.00	29.817 
18:05	51.0	51.0	51.0	70	41.6	4	11	90	0.00	29.817 
18:10	51.0	51.0	51.0	70	41.6	3	7	90	0.00	29.817 
18:15	50.8	50.8	50.8	70	41.4	5	10	90	0.00	29.814 
18:20	51.0	51.0	51.0	67	40.4	3	9	90	0.00	29.814 
18:25	51.0	51.0	51.0	70	41.6	3	9	90	0.00	29.814 
18:30	51.0	51.0	51.0	70	41.6	4	10	90	0.00	29.814 
18:35	50.8	50.8	50.8	71	41.7	3	7	112	0.00	29.814 
18:40	50.8	50.8	50.8	71	41.7	2	6	112	0.00	29.814 
18:45	50.7	50.7	50.7	71	41.6	1	4	112	0.00	29.804 
18:50	50.5	50.5	50.5	71	41.5	3	10	112	0.00	29.804 
18:55	50.2	50.2	50.2	72	41.5	2	7	90	0.00	29.804 
19:00	49.9	49.9	49.9	72	41.2	2	5	90	0.00	29.803 
19:05	49.8	49.8	49.8	72	41.1	2	6	90	0.00	29.803 
19:10	49.8	49.8	49.8	73	41.5	2	5	90	0.00	29.803 
19:15	49.6	49.6	49.6	73	41.3	1	3	90	0.00	29.798 
19:20	49.5	49.5	49.5	74	41.6	2	5	90	0.00	29.798 
19:25	49.2	49.2	49.2	74	41.3	1	4	90	0.00	29.798 
19:30	49.1	49.1	49.1	74	41.2	0	3	90	0.00	29.793 
19:35	48.8	48.8	48.8	74	40.9	0	2	90	0.00	29.793 
19:40	48.6	48.6	48.6	74	40.7	2	5	90	0.00	29.793 
19:45	48.5	48.5	48.5	75	40.9	2	4	90	0.00	29.786 
19:50	48.3	48.3	48.3	75	40.7	0	2	90	0.00	29.786 
19:55	48.2	48.2	48.2	75	40.7	0	1	90	0.00	29.786 
20:00	48.0	48.0	48.0	76	40.8	1	2	90	0.00	29.776 
20:05	47.9	47.9	47.9	76	40.7	1	3	90	0.00	29.776 
20:10	47.6	47.6	47.6	77	40.8	2	4	90	0.00	29.776 
20:15	47.4	47.4	47.4	77	40.6	1	3	90	0.00	29.769 
20:20	47.3	47.3	47.3	78	40.8	2	5	90	0.00	29.769 
20:25	47.0	47.0	47.0	78	40.5	1	4	90	0.00	29.769 
20:30	46.8	46.8	46.8	78	40.3	2	4	90	0.00	29.762 
20:35	46.7	46.7	46.7	78	40.2	2	4	90	0.00	29.762 
20:40	46.5	46.5	46.5	79	40.3	2	5	90	0.00	29.762 
20:45	46.4	46.4	46.4	79	40.2	0	1	90	0.00	29.762 
20:50	46.2	46.2	46.2	80	40.4	3	5	90	0.00	29.762 
20:55	46.1	46.1	46.1	80	40.3	3	6	90	0.00	29.762 
21:00	46.0	46.0	46.0	80	40.2	0	3	90	0.00	29.759 
21:05	45.8	45.8	45.8	80	40.0	0	3	90	0.00	29.759 
21:10	45.8	44.0	45.8	80	40.0	4	6	90	0.00	29.759 
21:15	46.1	46.1	46.1	80	40.3	3	5	90	0.00	29.741 
21:20	46.2	46.2	46.2	79	40.1	2	5	90	0.00	29.741 
21:25	46.4	46.4	46.4	78	39.9	0	1	90	0.00	29.741 
21:30	46.2	46.2	46.2	79	40.1	0	2	90	0.00	29.739 
21:35	46.2	46.2	46.2	79	40.1	1	3	90	0.00	29.739 
21:40	46.1	46.1	46.1	79	40.0	1	3	90	0.00	29.739 
21:45	46.0	46.0	46.0	79	39.9	2	3	90	0.00	29.727 
21:50	45.8	45.8	45.8	80	40.0	0	2	90	0.00	29.727 
21:55	45.7	45.7	45.7	80	39.9	1	3	90	0.00	29.727 
22:00	45.4	45.4	45.4	81	39.9	0	2	90	0.00	29.726 
22:05	45.1	45.1	45.1	81	39.6	0	1	90	0.00	29.726 
22:10	44.9	44.9	44.9	81	39.4	0	2	90	0.00	29.726 
22:15	44.6	44.6	44.6	81	39.1	0	0	---	0.00	29.725 
22:20	44.5	44.5	44.5	82	39.4	0	0	---	0.00	29.725 
22:25	44.2	44.2	44.2	82	39.1	0	0	---	0.00	29.725 
22:30	43.9	43.9	43.9	83	39.1	0	1	90	0.00	29.716 
22:35	43.9	43.9	43.9	84	39.4	0	1	90	0.00	29.716 
22:40	43.8	43.8	43.8	84	39.3	0	2	90	0.00	29.716 
22:45	43.8	43.8	43.8	84	39.3	0	1	90	0.00	29.707 
22:50	43.6	43.6	43.6	84	39.1	0	0	---	0.00	29.707 
22:55	43.5	43.5	43.5	84	39.0	0	1	90	0.00	29.707 
23:00	43.5	43.5	43.5	84	39.0	0	1	90	0.00	29.694 
23:05	43.5	43.5	43.5	85	39.3	0	0	---	0.00	29.694 
23:10	43.5	43.5	43.5	85	39.3	0	0	---	0.00	29.694 
23:15	43.5	43.5	43.5	85	39.3	0	0	---	0.00	29.695 
23:20	43.5	43.5	43.5	85	39.3	0	0	---	0.00	29.695 
23:25	43.5	43.5	43.5	85	39.3	0	0	---	0.00	29.695 
23:30	43.5	43.5	43.5	85	39.3	0	0	---	0.00	29.692 
23:35	43.5	43.5	43.5	85	39.3	0	0	---	0.00	29.692 
23:40	43.5	43.5	43.5	85	39.3	0	0	---	0.00	29.692 
23:45	43.8	43.8	43.8	84	39.3	0	0	---	0.00	29.688 
23:50	44.1	44.1	44.1	83	39.3	0	0	---	0.00	29.688 
23:55	44.5	44.5	44.5	81	39.0	0	1	90	0.00	29.688 

CoCoRaHS
IN-AL-39
A2 Web Hosting
Creative Commons License
GoDaddy
search engine by freefind advanced

loaded 2018-11-20 03:13:04 • last modified 2010-11-18 10:43:29
Privacy PolicyDisclaimer
• wx.awcolley.com is powered by PmWiki v.2002016 •
• all content (unless otherwise noted) © 2018 A W Colley